createdAt,value
2023-04-24T00:01:11.536Z,13.38
2023-04-24T00:03:50.564Z,13.34
2023-04-24T00:06:51.283Z,13.30
2023-04-24T00:09:29.908Z,13.26
2023-04-24T00:12:09.529Z,13.22
2023-04-24T00:14:48.381Z,13.18
2023-04-24T00:17:27.470Z,13.16
2023-04-24T00:20:08.089Z,13.13
2023-04-24T00:22:47.588Z,13.11
2023-04-24T00:25:26.952Z,13.08
2023-04-24T00:28:06.085Z,13.04
2023-04-24T00:30:44.541Z,13.01
2023-04-24T00:33:23.473Z,12.98
2023-04-24T00:36:02.032Z,12.97
2023-04-24T00:38:40.942Z,12.95
2023-04-24T00:41:19.339Z,12.92
2023-04-24T00:43:58.410Z,12.77
2023-04-24T00:46:35.971Z,12.91
2023-04-24T00:49:15.644Z,12.89
2023-04-24T00:51:55.340Z,12.85
2023-04-24T00:54:34.251Z,12.81
2023-04-24T00:57:13.461Z,12.77
2023-04-24T00:59:52.425Z,12.72
2023-04-24T01:02:31.417Z,12.68
2023-04-24T01:05:10.665Z,12.63
2023-04-24T01:07:50.246Z,12.61
2023-04-24T01:10:30.049Z,12.59
2023-04-24T01:13:10.450Z,12.56
2023-04-24T01:15:50.207Z,12.53
2023-04-24T01:18:28.956Z,12.52
2023-04-24T01:21:11.196Z,12.49
2023-04-24T01:23:50.078Z,12.48
2023-04-24T01:26:29.396Z,12.49
2023-04-24T01:29:08.788Z,12.51
2023-04-24T01:31:48.173Z,12.52
2023-04-24T01:34:27.546Z,12.55
2023-04-24T01:37:01.417Z,12.56
2023-04-24T01:39:34.780Z,12.55
2023-04-24T01:42:14.615Z,12.53
2023-04-24T01:44:54.666Z,12.51
2023-04-24T01:47:33.998Z,12.48
2023-04-24T01:50:06.949Z,12.47
2023-04-24T01:52:46.188Z,12.44
2023-04-24T01:55:24.849Z,12.40
2023-04-24T01:58:05.565Z,12.35
2023-04-24T02:00:44.317Z,12.32
2023-04-24T02:03:24.811Z,12.28
2023-04-24T02:06:04.743Z,12.25
2023-04-24T02:08:44.186Z,12.19
2023-04-24T02:11:23.304Z,12.14
2023-04-24T02:14:03.922Z,12.11
2023-04-24T02:16:42.820Z,12.08
2023-04-24T02:19:21.686Z,12.05
2023-04-24T02:22:00.578Z,12.01
2023-04-24T02:24:39.370Z,11.96
2023-04-24T02:27:18.656Z,11.92
2023-04-24T02:29:56.846Z,11.90
2023-04-24T02:32:35.261Z,11.87
2023-04-24T02:35:15.199Z,11.81
2023-04-24T02:37:50.260Z,11.79
2023-04-24T02:40:23.349Z,11.79
2023-04-24T02:42:57.316Z,11.78
2023-04-24T02:45:36.513Z,11.75
2023-04-24T02:48:15.393Z,11.72
2023-04-24T02:50:54.346Z,11.71
2023-04-24T02:53:33.472Z,11.72
2023-04-24T02:56:15.925Z,11.73
2023-04-24T02:58:55.019Z,11.72
2023-04-24T03:01:33.271Z,11.72
2023-04-24T03:04:13.979Z,11.69
2023-04-24T03:06:56.366Z,11.67
2023-04-24T03:09:36.113Z,11.66
2023-04-24T03:12:14.625Z,11.64
2023-04-24T03:14:53.094Z,11.59
2023-04-24T03:17:33.295Z,11.56
2023-04-24T03:20:13.706Z,11.52
2023-04-24T03:22:52.685Z,11.49
2023-04-24T03:25:32.521Z,11.45
2023-04-24T03:28:14.203Z,11.46
2023-04-24T03:30:53.601Z,11.45
2023-04-24T03:33:32.867Z,11.44
2023-04-24T03:36:12.987Z,11.44
2023-04-24T03:38:52.666Z,11.45
2023-04-24T03:41:31.853Z,11.45
2023-04-24T03:44:12.071Z,11.43
2023-04-24T03:46:45.021Z,11.43
2023-04-24T03:49:24.179Z,11.44
2023-04-24T03:52:03.427Z,11.47
2023-04-24T03:54:42.230Z,11.47
2023-04-24T03:57:21.189Z,11.46
2023-04-24T03:59:59.885Z,11.48
2023-04-24T04:02:38.942Z,11.48
2023-04-24T04:05:18.284Z,11.49
2023-04-24T04:07:56.745Z,11.46
2023-04-24T04:10:36.428Z,11.42
2023-04-24T04:13:15.153Z,11.45
2023-04-24T04:15:54.658Z,11.47
2023-04-24T04:18:34.862Z,11.49
2023-04-24T04:21:14.172Z,11.57
2023-04-24T04:23:53.073Z,11.61
2023-04-24T04:26:28.919Z,11.59
2023-04-24T04:29:04.984Z,11.57
2023-04-24T04:31:41.249Z,11.62
2023-04-24T04:34:20.826Z,11.63
2023-04-24T04:37:04.516Z,11.70
2023-04-24T04:39:40.926Z,11.73
2023-04-24T04:42:20.334Z,11.74
2023-04-24T04:45:00.703Z,11.76
2023-04-24T04:47:41.062Z,11.86
2023-04-24T04:50:20.848Z,11.88
2023-04-24T04:52:59.066Z,11.98
2023-04-24T04:55:37.821Z,12.00
2023-04-24T04:58:16.756Z,12.06
2023-04-24T05:00:58.672Z,12.13
2023-04-24T05:03:41.307Z,12.26
2023-04-24T05:06:20.785Z,12.35
2023-04-24T05:09:01.030Z,12.37
2023-04-24T05:11:39.933Z,12.47
2023-04-24T05:14:19.498Z,12.57
2023-04-24T05:16:58.193Z,12.64
2023-04-24T05:19:39.362Z,12.73
2023-04-24T05:22:13.426Z,12.87
2023-04-24T05:24:51.967Z,12.99
2023-04-24T05:27:32.251Z,13.27
2023-04-24T05:30:12.631Z,13.65
2023-04-24T05:32:51.084Z,14.04
2023-04-24T05:35:29.313Z,14.46
2023-04-24T05:38:08.338Z,14.81
2023-04-24T05:40:47.188Z,15.39
2023-04-24T05:43:26.457Z,15.97
2023-04-24T05:46:04.887Z,16.81
2023-04-24T05:48:43.390Z,17.34
2023-04-24T05:51:22.198Z,18.45
2023-04-24T05:54:00.485Z,19.02
2023-04-24T05:56:40.729Z,19.20
2023-04-24T05:59:21.639Z,19.64
2023-04-24T06:02:00.929Z,20.31
2023-04-24T06:04:40.227Z,20.60
2023-04-24T06:07:22.975Z,20.92
2023-04-24T06:10:01.581Z,21.05
2023-04-24T06:12:40.081Z,21.36
2023-04-24T06:15:20.182Z,21.48
2023-04-24T06:17:58.711Z,21.79
2023-04-24T06:20:36.915Z,22.13
2023-04-24T06:23:10.809Z,22.76
2023-04-24T06:25:43.855Z,22.88
2023-04-24T06:28:22.720Z,22.72
2023-04-24T06:30:53.274Z,21.63
2023-04-24T06:33:32.634Z,21.23
2023-04-24T06:36:12.700Z,21.24
2023-04-24T06:38:51.547Z,21.31
2023-04-24T06:41:30.911Z,21.89
2023-04-24T06:44:10.223Z,21.76
2023-04-24T06:46:49.339Z,21.62
2023-04-24T06:49:28.860Z,21.79
2023-04-24T06:52:07.664Z,22.31
2023-04-24T06:54:46.663Z,22.46
2023-04-24T06:57:25.483Z,22.70
2023-04-24T07:00:04.872Z,22.28
2023-04-24T07:02:44.114Z,22.30
2023-04-24T07:05:23.120Z,22.34
2023-04-24T07:08:02.046Z,22.84
2023-04-24T07:10:41.516Z,23.09
2023-04-24T07:13:18.573Z,23.44
2023-04-24T07:15:58.125Z,23.83
2023-04-24T07:18:38.799Z,23.42
2023-04-24T07:21:18.362Z,23.33
2023-04-24T07:23:57.858Z,22.83
2023-04-24T07:26:34.433Z,22.46
2023-04-24T07:29:09.005Z,23.32
2023-04-24T07:31:47.446Z,24.06
2023-04-24T07:34:26.207Z,24.46
2023-04-24T07:37:06.336Z,24.49
2023-04-24T07:39:45.546Z,24.22
2023-04-24T07:42:23.966Z,24.71
2023-04-24T07:45:03.013Z,25.07
2023-04-24T07:47:41.939Z,24.68
2023-04-24T07:50:21.561Z,23.67
2023-04-24T07:53:01.496Z,24.21
2023-04-24T07:55:40.966Z,24.42
2023-04-24T07:58:19.399Z,24.87
2023-04-24T08:00:58.673Z,24.54
2023-04-24T08:03:38.309Z,24.89
2023-04-24T08:06:17.069Z,25.42
2023-04-24T08:08:56.842Z,25.55
2023-04-24T08:11:35.538Z,26.14
2023-04-24T08:14:16.614Z,26.00
2023-04-24T08:17:01.847Z,26.16
2023-04-24T08:19:41.682Z,25.95
2023-04-24T08:22:21.634Z,25.91
2023-04-24T08:25:01.317Z,25.77
2023-04-24T08:27:40.479Z,25.86
2023-04-24T08:30:20.760Z,25.39
2023-04-24T08:33:01.490Z,25.13
2023-04-24T08:35:40.445Z,24.63
2023-04-24T08:38:20.492Z,24.17
2023-04-24T08:41:02.159Z,24.05
2023-04-24T08:43:43.861Z,23.96
2023-04-24T08:46:25.044Z,23.85
2023-04-24T08:49:04.013Z,23.83
2023-04-24T08:51:42.753Z,23.71
2023-04-24T08:54:22.075Z,23.52
2023-04-24T08:57:06.303Z,23.62
2023-04-24T08:59:47.034Z,23.64
2023-04-24T09:02:26.854Z,23.69
2023-04-24T09:05:07.170Z,23.77
2023-04-24T09:07:49.186Z,23.76
2023-04-24T09:10:33.937Z,23.97
2023-04-24T09:13:17.560Z,23.99
2023-04-24T09:15:52.889Z,23.86
2023-04-24T09:18:30.441Z,24.03
2023-04-24T09:21:12.390Z,24.03
2023-04-24T09:24:00.988Z,23.84
2023-04-24T09:26:45.675Z,23.68
2023-04-24T09:29:24.846Z,23.80
2023-04-24T09:32:24.004Z,23.71
2023-04-24T09:35:15.573Z,23.67
2023-04-24T09:37:51.367Z,23.94
2023-04-24T09:40:30.295Z,24.36
2023-04-24T09:43:13.314Z,24.91
2023-04-24T09:45:50.956Z,25.40
2023-04-24T09:48:46.135Z,26.10
2023-04-24T09:51:39.337Z,26.27
2023-04-24T09:54:27.654Z,26.17
2023-04-24T09:57:08.728Z,26.16
2023-04-24T09:59:57.704Z,26.21
2023-04-24T10:02:37.140Z,26.49
2023-04-24T10:05:14.028Z,26.70
2023-04-24T10:07:52.375Z,26.62
2023-04-24T10:10:32.166Z,27.01
2023-04-24T10:13:14.201Z,27.23
2023-04-24T10:15:51.629Z,27.02
2023-04-24T10:18:31.615Z,27.00
2023-04-24T10:21:10.531Z,27.02
2023-04-24T10:23:51.151Z,27.03
2023-04-24T10:26:31.395Z,27.24
2023-04-24T10:29:14.389Z,27.42
2023-04-24T10:31:51.515Z,26.59
2023-04-24T10:34:27.750Z,26.50
2023-04-24T10:37:06.293Z,26.65
2023-04-24T10:39:45.966Z,26.65
2023-04-24T10:42:25.553Z,26.71
2023-04-24T10:45:08.007Z,26.50
2023-04-24T10:47:54.266Z,26.51
2023-04-24T10:50:50.978Z,26.16
2023-04-24T10:53:33.673Z,25.67
2023-04-24T10:56:14.897Z,25.50
2023-04-24T10:58:56.686Z,25.54
2023-04-24T11:01:37.291Z,25.70
2023-04-24T11:04:16.434Z,25.51
2023-04-24T11:06:57.614Z,25.39
2023-04-24T11:09:45.031Z,25.51
2023-04-24T11:12:24.445Z,25.55
2023-04-24T11:15:04.920Z,25.47
2023-04-24T11:17:47.838Z,25.32
2023-04-24T11:20:28.810Z,25.27
2023-04-24T11:23:11.984Z,25.31
2023-04-24T11:26:15.843Z,25.21
2023-04-24T11:29:09.622Z,25.12
2023-04-24T11:31:52.824Z,25.07
2023-04-24T11:34:33.702Z,25.10
2023-04-24T11:37:13.785Z,25.05
2023-04-24T11:39:54.128Z,25.00
2023-04-24T11:42:39.763Z,25.00
2023-04-24T11:45:18.155Z,24.98
2023-04-24T11:47:53.095Z,25.22
2023-04-24T11:50:32.413Z,25.52
2023-04-24T11:53:12.975Z,25.35
2023-04-24T11:55:52.016Z,25.21
2023-04-24T11:58:31.379Z,25.31
2023-04-24T12:01:12.113Z,25.40
2023-04-24T12:03:53.320Z,25.44
2023-04-24T12:06:32.435Z,25.61
2023-04-24T12:09:18.496Z,25.78
2023-04-24T12:11:59.416Z,25.66
2023-04-24T12:14:34.579Z,25.57
2023-04-24T12:17:13.258Z,25.50
2023-04-24T12:19:55.167Z,25.21
2023-04-24T12:22:44.856Z,25.26
2023-04-24T12:25:26.577Z,25.38
2023-04-24T12:28:18.318Z,25.27
2023-04-24T12:30:57.705Z,25.22
2023-04-24T12:33:40.315Z,25.29
2023-04-24T12:36:19.517Z,25.45
2023-04-24T12:39:00.603Z,25.51
2023-04-24T12:41:39.760Z,25.38
2023-04-24T12:44:20.261Z,25.30
2023-04-24T12:46:57.349Z,25.43
2023-04-24T12:49:36.674Z,25.54
2023-04-24T12:52:15.644Z,25.57
2023-04-24T12:54:55.488Z,25.39
2023-04-24T12:57:35.581Z,24.99
2023-04-24T13:00:17.590Z,24.33
2023-04-24T13:03:03.250Z,24.08
2023-04-24T13:05:42.589Z,23.93
2023-04-24T13:08:20.270Z,23.65
2023-04-24T13:11:04.073Z,23.42
2023-04-24T13:13:42.321Z,23.23
2023-04-24T13:16:22.036Z,22.97
2023-04-24T13:19:01.139Z,22.70
2023-04-24T13:21:40.732Z,22.76
2023-04-24T13:24:19.904Z,22.97
2023-04-24T13:27:02.461Z,22.94
2023-04-24T13:29:41.416Z,22.92
2023-04-24T13:32:20.501Z,22.86
2023-04-24T13:34:59.641Z,22.89
2023-04-24T13:37:38.633Z,22.99
2023-04-24T13:40:19.145Z,23.13
2023-04-24T13:42:58.451Z,23.12
2023-04-24T13:45:37.046Z,23.12
2023-04-24T13:48:17.026Z,23.18
2023-04-24T13:50:54.891Z,23.06
2023-04-24T13:53:34.128Z,22.71
2023-04-24T13:56:15.061Z,22.98
2023-04-24T13:58:55.759Z,23.09
2023-04-24T14:01:30.252Z,23.06
2023-04-24T14:04:05.872Z,22.96
2023-04-24T14:06:40.841Z,22.84
2023-04-24T14:09:19.122Z,22.75
2023-04-24T14:11:57.624Z,22.70
2023-04-24T14:14:36.328Z,22.67
2023-04-24T14:17:16.127Z,22.70
2023-04-24T14:19:58.945Z,22.81
2023-04-24T14:22:38.675Z,22.92
2023-04-24T14:25:17.948Z,23.08
2023-04-24T14:27:55.693Z,23.03
2023-04-24T14:30:34.927Z,23.08
2023-04-24T14:33:14.617Z,23.29
2023-04-24T14:35:54.453Z,23.38
2023-04-24T14:38:34.263Z,23.52
2023-04-24T14:41:14.355Z,23.42
2023-04-24T14:43:52.814Z,23.51
2023-04-24T14:46:32.557Z,23.46
2023-04-24T14:49:14.246Z,23.40
2023-04-24T14:51:52.967Z,23.23
2023-04-24T14:54:33.206Z,23.22
2023-04-24T14:57:15.939Z,23.18
2023-04-24T15:01:04.516Z,23.15
2023-04-24T15:03:31.340Z,22.99
2023-04-24T15:06:11.016Z,22.78
2023-04-24T15:08:50.699Z,22.59
2023-04-24T15:11:30.791Z,22.40
2023-04-24T15:14:06.502Z,22.27
2023-04-24T15:16:45.212Z,22.23
2023-04-24T15:19:24.157Z,22.18
2023-04-24T15:22:02.791Z,22.09
2023-04-24T15:24:42.991Z,21.96
2023-04-24T15:27:22.907Z,21.92
2023-04-24T15:30:01.537Z,21.79
2023-04-24T15:32:40.604Z,21.64
2023-04-24T15:35:19.818Z,21.55
2023-04-24T15:37:59.006Z,21.48
2023-04-24T15:40:37.437Z,21.46
2023-04-24T15:43:14.996Z,21.46
2023-04-24T15:45:54.370Z,21.46
2023-04-24T15:48:33.479Z,21.48
2023-04-24T15:51:13.519Z,21.42
2023-04-24T15:53:51.771Z,21.44
2023-04-24T15:56:31.697Z,21.50
2023-04-24T15:59:11.305Z,21.53
2023-04-24T16:01:51.361Z,21.60
2023-04-24T16:04:31.312Z,21.67
2023-04-24T16:07:10.746Z,21.71
2023-04-24T16:09:50.311Z,21.73
2023-04-24T16:12:30.008Z,21.76
2023-04-24T16:15:05.990Z,21.78
2023-04-24T16:17:38.088Z,21.80
2023-04-24T16:20:18.237Z,21.81
2023-04-24T16:22:56.950Z,21.76
2023-04-24T16:25:36.111Z,21.76
2023-04-24T16:28:15.367Z,21.75
2023-04-24T16:30:54.572Z,21.73
2023-04-24T16:33:33.649Z,21.67
2023-04-24T16:36:13.897Z,21.58
2023-04-24T16:38:52.721Z,21.53
2023-04-24T16:41:31.209Z,21.48
2023-04-24T16:44:11.597Z,21.42
2023-04-24T16:46:50.028Z,21.33
2023-04-24T16:49:31.453Z,21.34
2023-04-24T16:52:11.414Z,21.30
2023-04-24T16:54:50.408Z,21.26
2023-04-24T16:57:29.474Z,21.22
2023-04-24T17:00:09.711Z,21.18
2023-04-24T17:02:55.247Z,21.09
2023-04-24T17:05:32.864Z,21.03
2023-04-24T17:08:12.563Z,20.96
2023-04-24T17:10:50.999Z,20.91
2023-04-24T17:13:29.893Z,20.87
2023-04-24T17:16:09.415Z,20.83
2023-04-24T17:18:47.515Z,20.77
2023-04-24T17:21:26.933Z,20.72
2023-04-24T17:24:05.426Z,20.66
2023-04-24T17:26:43.233Z,20.62
2023-04-24T17:29:22.445Z,20.55
2023-04-24T17:32:01.597Z,20.49
2023-04-24T17:34:40.967Z,20.43
2023-04-24T17:37:25.786Z,20.35
2023-04-24T17:40:04.816Z,20.28
2023-04-24T17:42:43.086Z,20.21
2023-04-24T17:45:21.961Z,20.14
2023-04-24T17:48:01.654Z,20.08
2023-04-24T17:50:38.749Z,19.88
2023-04-24T17:53:19.254Z,19.91
2023-04-24T17:56:01.118Z,19.84
2023-04-24T17:58:39.157Z,19.76
2023-04-24T18:01:18.313Z,19.67
2023-04-24T18:03:58.305Z,19.58
2023-04-24T22:30:56.078Z,14.85
2023-04-24T22:33:29.351Z,14.84
2023-04-24T22:36:07.951Z,14.81
2023-04-24T22:38:46.375Z,14.76
2023-04-24T22:41:25.569Z,14.72
2023-04-24T22:44:04.422Z,14.69
2023-04-24T22:46:42.893Z,14.64
2023-04-24T22:49:22.668Z,14.59
2023-04-24T22:52:07.724Z,14.53
2023-04-24T22:54:45.989Z,14.50
2023-04-24T22:57:23.869Z,14.43
2023-04-24T23:00:01.976Z,14.37
2023-04-24T23:02:42.420Z,14.33
2023-04-24T23:05:22.580Z,14.28
2023-04-24T23:08:01.914Z,14.24
2023-04-24T23:10:40.173Z,14.27
2023-04-24T23:13:18.293Z,14.28
2023-04-24T23:15:56.756Z,14.27
2023-04-24T23:18:35.196Z,14.27
2023-04-24T23:21:13.900Z,14.24
2023-04-24T23:23:53.288Z,14.20
2023-04-24T23:26:31.371Z,14.15
2023-04-24T23:29:10.250Z,14.11
2023-04-24T23:31:48.372Z,14.08
2023-04-24T23:34:26.067Z,14.03
2023-04-24T23:37:05.343Z,14.01
2023-04-24T23:39:43.271Z,13.98
2023-04-24T23:42:16.060Z,13.94
2023-04-24T23:44:51.312Z,13.90
2023-04-24T23:47:29.123Z,13.88
2023-04-24T23:50:07.467Z,13.85
2023-04-24T23:52:45.414Z,13.82
2023-04-24T23:55:23.669Z,13.84
2023-04-24T23:58:01.817Z,13.84
